sensor_id;sensor_type;location;lat;lon;timestamp;temperature;humidity
431;DHT22;202;48.764;9.172;2022-12-01T00:01:01;6.80;57.90
431;DHT22;202;48.764;9.172;2022-12-01T00:03:29;6.80;58.50
431;DHT22;202;48.764;9.172;2022-12-01T00:05:59;6.70;57.90
431;DHT22;202;48.764;9.172;2022-12-01T00:08:26;6.60;59.10
431;DHT22;202;48.764;9.172;2022-12-01T00:10:53;6.70;59.10
431;DHT22;202;48.764;9.172;2022-12-01T00:13:20;6.70;58.60
431;DHT22;202;48.764;9.172;2022-12-01T00:15:47;6.60;58.80
431;DHT22;202;48.764;9.172;2022-12-01T00:18:14;6.60;58.70
431;DHT22;202;48.764;9.172;2022-12-01T00:20:41;6.50;58.90
431;DHT22;202;48.764;9.172;2022-12-01T00:23:08;6.60;59.20
431;DHT22;202;48.764;9.172;2022-12-01T00:25:35;6.60;59.40
431;DHT22;202;48.764;9.172;2022-12-01T00:28:01;6.70;58.90
431;DHT22;202;48.764;9.172;2022-12-01T00:30:30;6.60;58.40
431;DHT22;202;48.764;9.172;2022-12-01T00:32:56;6.50;59.10
431;DHT22;202;48.764;9.172;2022-12-01T00:35:23;6.40;58.60
431;DHT22;202;48.764;9.172;2022-12-01T00:37:50;6.30;60.10
431;DHT22;202;48.764;9.172;2022-12-01T00:40:17;6.40;59.00
431;DHT22;202;48.764;9.172;2022-12-01T00:42:44;6.20;59.80
431;DHT22;202;48.764;9.172;2022-12-01T00:45:10;6.20;59.60
431;DHT22;202;48.764;9.172;2022-12-01T00:47:38;6.30;60.50
431;DHT22;202;48.764;9.172;2022-12-01T00:50:06;6.30;61.20
431;DHT22;202;48.764;9.172;2022-12-01T00:52:33;6.40;60.50
431;DHT22;202;48.764;9.172;2022-12-01T00:55:00;6.50;58.40
431;DHT22;202;48.764;9.172;2022-12-01T00:57:26;6.40;59.30
431;DHT22;202;48.764;9.172;2022-12-01T00:59:53;6.40;59.30
431;DHT22;202;48.764;9.172;2022-12-01T01:02:20;6.40;59.20
431;DHT22;202;48.764;9.172;2022-12-01T01:04:48;6.40;59.40
431;DHT22;202;48.764;9.172;2022-12-01T01:07:15;6.40;60.00
431;DHT22;202;48.764;9.172;2022-12-01T01:09:42;6.40;59.50
431;DHT22;202;48.764;9.172;2022-12-01T01:12:09;6.30;59.40
431;DHT22;202;48.764;9.172;2022-12-01T01:14:35;6.20;59.00
431;DHT22;202;48.764;9.172;2022-12-01T01:17:02;6.20;60.40
431;DHT22;202;48.764;9.172;2022-12-01T01:19:29;6.20;60.10
431;DHT22;202;48.764;9.172;2022-12-01T01:21:57;6.10;60.30
431;DHT22;202;48.764;9.172;2022-12-01T01:24:24;6.00;60.20
431;DHT22;202;48.764;9.172;2022-12-01T01:26:51;5.90;59.70
431;DHT22;202;48.764;9.172;2022-12-01T01:29:20;5.90;60.10
431;DHT22;202;48.764;9.172;2022-12-01T01:31:46;5.90;58.60
431;DHT22;202;48.764;9.172;2022-12-01T01:34:13;5.80;59.30
431;DHT22;202;48.764;9.172;2022-12-01T01:36:40;5.90;60.10
431;DHT22;202;48.764;9.172;2022-12-01T01:39:08;6.00;58.60
431;DHT22;202;48.764;9.172;2022-12-01T01:41:35;5.90;58.50
431;DHT22;202;48.764;9.172;2022-12-01T01:44:02;5.80;58.80
431;DHT22;202;48.764;9.172;2022-12-01T01:46:31;5.80;59.10
431;DHT22;202;48.764;9.172;2022-12-01T01:48:59;5.80;58.70
431;DHT22;202;48.764;9.172;2022-12-01T01:51:29;5.80;58.60
431;DHT22;202;48.764;9.172;2022-12-01T01:54:03;5.70;59.00
431;DHT22;202;48.764;9.172;2022-12-01T01:56:34;5.70;59.30
431;DHT22;202;48.764;9.172;2022-12-01T01:59:02;5.70;59.70
431;DHT22;202;48.764;9.172;2022-12-01T02:01:30;5.70;60.00
431;DHT22;202;48.764;9.172;2022-12-01T02:03:59;5.70;58.90
431;DHT22;202;48.764;9.172;2022-12-01T02:06:26;5.80;58.20
431;DHT22;202;48.764;9.172;2022-12-01T02:08:53;5.70;58.20
431;DHT22;202;48.764;9.172;2022-12-01T02:11:43;5.80;59.00
431;DHT22;202;48.764;9.172;2022-12-01T02:14:32;5.90;58.20
431;DHT22;202;48.764;9.172;2022-12-01T02:17:12;5.80;58.80
431;DHT22;202;48.764;9.172;2022-12-01T02:19:59;5.90;58.80
431;DHT22;202;48.764;9.172;2022-12-01T02:22:36;6.00;58.90
431;DHT22;202;48.764;9.172;2022-12-01T02:25:20;6.00;57.90
431;DHT22;202;48.764;9.172;2022-12-01T02:28:18;6.10;58.20
431;DHT22;202;48.764;9.172;2022-12-01T02:30:51;6.00;57.30
431;DHT22;202;48.764;9.172;2022-12-01T02:33:25;6.10;57.70
431;DHT22;202;48.764;9.172;2022-12-01T02:36:20;6.10;57.20
431;DHT22;202;48.764;9.172;2022-12-01T02:39:09;6.20;57.60
431;DHT22;202;48.764;9.172;2022-12-01T02:42:06;6.30;56.60
431;DHT22;202;48.764;9.172;2022-12-01T02:45:10;6.30;56.20
431;DHT22;202;48.764;9.172;2022-12-01T02:48:15;6.30;55.10
431;DHT22;202;48.764;9.172;2022-12-01T02:50:57;6.20;55.80
431;DHT22;202;48.764;9.172;2022-12-01T02:53:58;5.80;55.70
431;DHT22;202;48.764;9.172;2022-12-01T02:56:42;5.70;57.00
431;DHT22;202;48.764;9.172;2022-12-01T02:59:29;5.70;57.90
431;DHT22;202;48.764;9.172;2022-12-01T03:02:17;5.60;58.00
431;DHT22;202;48.764;9.172;2022-12-01T03:05:02;5.50;58.70
431;DHT22;202;48.764;9.172;2022-12-01T03:07:55;5.40;59.00
431;DHT22;202;48.764;9.172;2022-12-01T03:14:34;5.70;59.20
431;DHT22;202;48.764;9.172;2022-12-01T03:21:09;5.80;56.90
431;DHT22;202;48.764;9.172;2022-12-01T03:23:50;5.70;57.10
431;DHT22;202;48.764;9.172;2022-12-01T03:26:22;5.80;58.40
431;DHT22;202;48.764;9.172;2022-12-01T03:28:52;5.90;57.50
431;DHT22;202;48.764;9.172;2022-12-01T03:31:27;5.80;56.90
431;DHT22;202;48.764;9.172;2022-12-01T03:34:02;6.00;56.60
431;DHT22;202;48.764;9.172;2022-12-01T03:36:34;6.00;55.40
431;DHT22;202;48.764;9.172;2022-12-01T03:39:05;5.80;56.70
431;DHT22;202;48.764;9.172;2022-12-01T03:41:36;5.80;56.60
431;DHT22;202;48.764;9.172;2022-12-01T03:44:09;5.70;56.50
431;DHT22;202;48.764;9.172;2022-12-01T03:46:42;5.60;57.50
431;DHT22;202;48.764;9.172;2022-12-01T03:49:11;5.60;57.00
431;DHT22;202;48.764;9.172;2022-12-01T03:51:48;5.60;57.00
431;DHT22;202;48.764;9.172;2022-12-01T03:54:18;5.40;57.70
431;DHT22;202;48.764;9.172;2022-12-01T03:56:51;5.40;57.50
431;DHT22;202;48.764;9.172;2022-12-01T03:59:20;5.40;59.10
431;DHT22;202;48.764;9.172;2022-12-01T04:01:49;5.50;58.30
431;DHT22;202;48.764;9.172;2022-12-01T04:04:17;5.50;57.40
431;DHT22;202;48.764;9.172;2022-12-01T04:06:47;5.50;57.60
431;DHT22;202;48.764;9.172;2022-12-01T04:09:27;5.50;57.00
431;DHT22;202;48.764;9.172;2022-12-01T04:11:57;5.40;57.90
431;DHT22;202;48.764;9.172;2022-12-01T04:14:48;5.40;58.50
431;DHT22;202;48.764;9.172;2022-12-01T04:17:15;5.50;57.50
431;DHT22;202;48.764;9.172;2022-12-01T04:19:43;5.40;57.50
431;DHT22;202;48.764;9.172;2022-12-01T04:22:14;5.40;57.60
431;DHT22;202;48.764;9.172;2022-12-01T04:24:41;5.30;57.40
431;DHT22;202;48.764;9.172;2022-12-01T04:27:17;5.40;58.40
431;DHT22;202;48.764;9.172;2022-12-01T04:29:48;5.50;58.10
431;DHT22;202;48.764;9.172;2022-12-01T04:32:17;5.50;57.70
431;DHT22;202;48.764;9.172;2022-12-01T04:34:44;5.50;57.50
431;DHT22;202;48.764;9.172;2022-12-01T04:37:13;5.30;57.70
431;DHT22;202;48.764;9.172;2022-12-01T04:39:43;5.10;58.80
431;DHT22;202;48.764;9.172;2022-12-01T04:42:10;5.10;59.50
431;DHT22;202;48.764;9.172;2022-12-01T04:44:37;5.30;59.20
431;DHT22;202;48.764;9.172;2022-12-01T04:47:06;5.20;58.90
431;DHT22;202;48.764;9.172;2022-12-01T04:49:34;5.20;58.70
431;DHT22;202;48.764;9.172;2022-12-01T04:52:03;5.10;59.00
431;DHT22;202;48.764;9.172;2022-12-01T04:54:35;5.20;59.10
431;DHT22;202;48.764;9.172;2022-12-01T04:57:04;5.40;58.90
431;DHT22;202;48.764;9.172;2022-12-01T04:59:31;5.40;58.10
431;DHT22;202;48.764;9.172;2022-12-01T05:01:58;5.50;58.00
431;DHT22;202;48.764;9.172;2022-12-01T05:10:53;5.60;56.30
431;DHT22;202;48.764;9.172;2022-12-01T05:14:02;5.60;56.90
431;DHT22;202;48.764;9.172;2022-12-01T05:19:24;5.70;56.70
431;DHT22;202;48.764;9.172;2022-12-01T05:25:53;5.80;56.00
431;DHT22;202;48.764;9.172;2022-12-01T05:28:30;5.80;56.30
431;DHT22;202;48.764;9.172;2022-12-01T05:30:57;5.90;56.50
431;DHT22;202;48.764;9.172;2022-12-01T05:33:25;6.00;56.10
431;DHT22;202;48.764;9.172;2022-12-01T05:35:53;6.10;55.70
431;DHT22;202;48.764;9.172;2022-12-01T05:38:44;6.20;55.80
431;DHT22;202;48.764;9.172;2022-12-01T05:41:32;6.20;55.20
431;DHT22;202;48.764;9.172;2022-12-01T05:43:59;6.10;54.80
431;DHT22;202;48.764;9.172;2022-12-01T05:46:26;6.00;55.50
431;DHT22;202;48.764;9.172;2022-12-01T05:48:53;6.10;55.20
431;DHT22;202;48.764;9.172;2022-12-01T05:51:19;6.00;54.30
431;DHT22;202;48.764;9.172;2022-12-01T05:53:46;5.80;55.10
431;DHT22;202;48.764;9.172;2022-12-01T05:56:13;5.70;55.30
431;DHT22;202;48.764;9.172;2022-12-01T05:58:41;5.70;56.60
431;DHT22;202;48.764;9.172;2022-12-01T06:01:08;5.60;56.30
431;DHT22;202;48.764;9.172;2022-12-01T06:03:35;5.50;56.20
431;DHT22;202;48.764;9.172;2022-12-01T06:06:02;5.60;56.80
431;DHT22;202;48.764;9.172;2022-12-01T06:08:29;5.70;57.20
431;DHT22;202;48.764;9.172;2022-12-01T06:10:55;5.70;57.80
431;DHT22;202;48.764;9.172;2022-12-01T06:13:22;5.70;57.70
431;DHT22;202;48.764;9.172;2022-12-01T06:15:58;5.80;57.50
431;DHT22;202;48.764;9.172;2022-12-01T06:18:26;5.80;57.00
431;DHT22;202;48.764;9.172;2022-12-01T06:20:53;5.70;56.90
431;DHT22;202;48.764;9.172;2022-12-01T06:23:20;5.80;56.50
431;DHT22;202;48.764;9.172;2022-12-01T06:25:47;5.90;56.00
431;DHT22;202;48.764;9.172;2022-12-01T06:28:15;5.80;56.40
431;DHT22;202;48.764;9.172;2022-12-01T06:30:46;6.00;55.10
431;DHT22;202;48.764;9.172;2022-12-01T06:33:14;6.10;55.70
431;DHT22;202;48.764;9.172;2022-12-01T06:35:42;6.00;55.60
431;DHT22;202;48.764;9.172;2022-12-01T06:38:11;5.90;57.00
431;DHT22;202;48.764;9.172;2022-12-01T06:40:38;5.90;55.50
431;DHT22;202;48.764;9.172;2022-12-01T06:43:05;5.70;57.30
431;DHT22;202;48.764;9.172;2022-12-01T06:45:32;5.70;57.30
431;DHT22;202;48.764;9.172;2022-12-01T06:47:59;5.90;57.00
431;DHT22;202;48.764;9.172;2022-12-01T06:50:27;6.00;57.50
431;DHT22;202;48.764;9.172;2022-12-01T06:52:54;5.80;56.90
431;DHT22;202;48.764;9.172;2022-12-01T06:55:21;5.70;57.10
431;DHT22;202;48.764;9.172;2022-12-01T06:57:48;5.70;58.40
431;DHT22;202;48.764;9.172;2022-12-01T07:00:15;5.70;58.10
431;DHT22;202;48.764;9.172;2022-12-01T07:02:42;5.80;57.20
431;DHT22;202;48.764;9.172;2022-12-01T07:05:09;5.90;57.00
431;DHT22;202;48.764;9.172;2022-12-01T07:07:38;5.90;56.60
431;DHT22;202;48.764;9.172;2022-12-01T07:10:06;5.70;56.40
431;DHT22;202;48.764;9.172;2022-12-01T07:12:33;5.60;57.10
431;DHT22;202;48.764;9.172;2022-12-01T07:15:00;5.60;58.10
431;DHT22;202;48.764;9.172;2022-12-01T07:17:27;5.70;57.60
431;DHT22;202;48.764;9.172;2022-12-01T07:19:54;5.80;57.40
431;DHT22;202;48.764;9.172;2022-12-01T07:22:21;5.90;57.40
431;DHT22;202;48.764;9.172;2022-12-01T07:24:49;5.90;57.50
431;DHT22;202;48.764;9.172;2022-12-01T07:27:16;6.00;57.70
431;DHT22;202;48.764;9.172;2022-12-01T07:29:43;6.10;57.10
431;DHT22;202;48.764;9.172;2022-12-01T07:32:12;6.10;56.60
431;DHT22;202;48.764;9.172;2022-12-01T07:34:39;6.10;56.50
431;DHT22;202;48.764;9.172;2022-12-01T07:37:06;6.10;56.20
431;DHT22;202;48.764;9.172;2022-12-01T07:39:33;6.10;55.70
431;DHT22;202;48.764;9.172;2022-12-01T07:42:03;6.00;55.60
431;DHT22;202;48.764;9.172;2022-12-01T07:44:30;6.00;55.60
431;DHT22;202;48.764;9.172;2022-12-01T07:46:57;5.90;55.90
431;DHT22;202;48.764;9.172;2022-12-01T07:49:24;5.70;56.90
431;DHT22;202;48.764;9.172;2022-12-01T07:51:51;5.90;57.20
431;DHT22;202;48.764;9.172;2022-12-01T07:54:17;5.80;56.70
431;DHT22;202;48.764;9.172;2022-12-01T07:56:45;5.90;57.50
431;DHT22;202;48.764;9.172;2022-12-01T07:59:14;6.00;56.70
431;DHT22;202;48.764;9.172;2022-12-01T08:01:41;6.10;57.00
431;DHT22;202;48.764;9.172;2022-12-01T08:04:09;6.20;56.50
431;DHT22;202;48.764;9.172;2022-12-01T08:06:36;6.30;56.40
431;DHT22;202;48.764;9.172;2022-12-01T08:09:05;6.30;55.90
431;DHT22;202;48.764;9.172;2022-12-01T08:11:33;6.30;55.80
431;DHT22;202;48.764;9.172;2022-12-01T08:14:00;6.30;55.80
431;DHT22;202;48.764;9.172;2022-12-01T08:16:28;6.20;55.60
431;DHT22;202;48.764;9.172;2022-12-01T08:18:56;6.30;55.80
431;DHT22;202;48.764;9.172;2022-12-01T08:21:23;6.40;56.00
431;DHT22;202;48.764;9.172;2022-12-01T08:23:52;6.30;55.80
431;DHT22;202;48.764;9.172;2022-12-01T08:26:23;6.40;56.00
431;DHT22;202;48.764;9.172;2022-12-01T08:28:50;6.30;55.80
431;DHT22;202;48.764;9.172;2022-12-01T08:31:20;6.40;56.00
431;DHT22;202;48.764;9.172;2022-12-01T08:33:51;6.30;55.30
431;DHT22;202;48.764;9.172;2022-12-01T08:36:20;6.30;56.50
431;DHT22;202;48.764;9.172;2022-12-01T08:38:49;6.30;55.80
431;DHT22;202;48.764;9.172;2022-12-01T08:41:18;6.30;55.40
431;DHT22;202;48.764;9.172;2022-12-01T08:43:45;6.30;55.30
431;DHT22;202;48.764;9.172;2022-12-01T08:46:13;6.20;55.80
431;DHT22;202;48.764;9.172;2022-12-01T08:48:45;6.30;55.90
431;DHT22;202;48.764;9.172;2022-12-01T08:51:18;6.30;55.80
431;DHT22;202;48.764;9.172;2022-12-01T08:53:48;6.30;55.50
431;DHT22;202;48.764;9.172;2022-12-01T08:56:18;6.20;55.60
431;DHT22;202;48.764;9.172;2022-12-01T08:58:45;6.20;55.80
431;DHT22;202;48.764;9.172;2022-12-01T09:01:14;6.30;55.80
431;DHT22;202;48.764;9.172;2022-12-01T09:03:42;6.40;56.00
431;DHT22;202;48.764;9.172;2022-12-01T09:06:18;6.30;55.80
431;DHT22;202;48.764;9.172;2022-12-01T09:08:47;6.30;55.80
431;DHT22;202;48.764;9.172;2022-12-01T09:11:30;6.30;55.80
431;DHT22;202;48.764;9.172;2022-12-01T09:14:00;6.30;55.80
431;DHT22;202;48.764;9.172;2022-12-01T09:16:31;6.40;55.90
431;DHT22;202;48.764;9.172;2022-12-01T09:18:58;6.40;55.60
431;DHT22;202;48.764;9.172;2022-12-01T09:21:48;6.50;55.20
431;DHT22;202;48.764;9.172;2022-12-01T09:24:23;6.50;55.00
431;DHT22;202;48.764;9.172;2022-12-01T09:27:04;6.50;54.90
431;DHT22;202;48.764;9.172;2022-12-01T09:29:32;6.40;55.20
431;DHT22;202;48.764;9.172;2022-12-01T09:31:59;6.50;55.20
431;DHT22;202;48.764;9.172;2022-12-01T09:34:27;6.40;55.30
431;DHT22;202;48.764;9.172;2022-12-01T09:36:57;6.50;55.50
431;DHT22;202;48.764;9.172;2022-12-01T09:39:24;6.50;55.10
431;DHT22;202;48.764;9.172;2022-12-01T09:41:54;6.50;55.40
431;DHT22;202;48.764;9.172;2022-12-01T09:44:35;6.50;55.20
431;DHT22;202;48.764;9.172;2022-12-01T09:47:10;6.50;55.50
431;DHT22;202;48.764;9.172;2022-12-01T09:49:52;6.40;55.30
431;DHT22;202;48.764;9.172;2022-12-01T09:52:38;6.50;55.50
431;DHT22;202;48.764;9.172;2022-12-01T09:55:11;6.50;56.00
431;DHT22;202;48.764;9.172;2022-12-01T09:57:41;6.40;55.60
431;DHT22;202;48.764;9.172;2022-12-01T10:00:14;6.30;55.10
431;DHT22;202;48.764;9.172;2022-12-01T10:02:50;6.20;55.80
431;DHT22;202;48.764;9.172;2022-12-01T10:05:20;6.30;55.80
431;DHT22;202;48.764;9.172;2022-12-01T10:07:54;6.40;55.70
431;DHT22;202;48.764;9.172;2022-12-01T10:10:26;6.40;56.00
431;DHT22;202;48.764;9.172;2022-12-01T10:12:54;6.50;55.70
431;DHT22;202;48.764;9.172;2022-12-01T10:15:31;6.50;55.20
431;DHT22;202;48.764;9.172;2022-12-01T10:18:14;6.50;55.60
431;DHT22;202;48.764;9.172;2022-12-01T10:20:53;6.50;55.60
431;DHT22;202;48.764;9.172;2022-12-01T10:23:39;6.50;55.60
431;DHT22;202;48.764;9.172;2022-12-01T10:26:12;6.60;55.50
431;DHT22;202;48.764;9.172;2022-12-01T10:28:52;6.60;55.60
431;DHT22;202;48.764;9.172;2022-12-01T10:31:23;6.60;55.40
431;DHT22;202;48.764;9.172;2022-12-01T10:33:58;6.60;56.10
431;DHT22;202;48.764;9.172;2022-12-01T10:36:30;6.50;56.00
431;DHT22;202;48.764;9.172;2022-12-01T10:39:02;6.50;55.80
431;DHT22;202;48.764;9.172;2022-12-01T10:41:36;6.50;56.00
431;DHT22;202;48.764;9.172;2022-12-01T10:44:06;6.60;56.10
431;DHT22;202;48.764;9.172;2022-12-01T10:46:45;6.70;55.70
431;DHT22;202;48.764;9.172;2022-12-01T10:52:32;6.80;55.20
431;DHT22;202;48.764;9.172;2022-12-01T10:55:28;6.70;54.90
431;DHT22;202;48.764;9.172;2022-12-01T10:58:13;6.70;54.90
431;DHT22;202;48.764;9.172;2022-12-01T11:00:56;6.60;54.90
431;DHT22;202;48.764;9.172;2022-12-01T11:03:47;6.60;55.50
431;DHT22;202;48.764;9.172;2022-12-01T11:06:25;6.50;55.90
431;DHT22;202;48.764;9.172;2022-12-01T11:08:59;6.60;55.90
431;DHT22;202;48.764;9.172;2022-12-01T11:11:34;6.70;55.50
431;DHT22;202;48.764;9.172;2022-12-01T11:14:05;6.70;55.60
431;DHT22;202;48.764;9.172;2022-12-01T11:16:37;6.80;55.10
431;DHT22;202;48.764;9.172;2022-12-01T11:19:21;6.70;55.10
431;DHT22;202;48.764;9.172;2022-12-01T11:21:57;6.80;55.50
431;DHT22;202;48.764;9.172;2022-12-01T11:24:39;6.80;55.30
431;DHT22;202;48.764;9.172;2022-12-01T11:27:15;6.80;54.90
431;DHT22;202;48.764;9.172;2022-12-01T11:29:51;6.80;54.90
431;DHT22;202;48.764;9.172;2022-12-01T11:32:35;6.80;55.10
431;DHT22;202;48.764;9.172;2022-12-01T11:35:06;6.90;54.70
431;DHT22;202;48.764;9.172;2022-12-01T11:37:45;6.90;54.80
431;DHT22;202;48.764;9.172;2022-12-01T11:42:50;6.80;54.90
431;DHT22;202;48.764;9.172;2022-12-01T11:45:36;6.90;55.20
431;DHT22;202;48.764;9.172;2022-12-01T11:48:28;6.90;55.10
431;DHT22;202;48.764;9.172;2022-12-01T11:51:31;7.00;55.00
431;DHT22;202;48.764;9.172;2022-12-01T11:54:17;7.00;55.40
431;DHT22;202;48.764;9.172;2022-12-01T11:57:08;7.00;54.40
431;DHT22;202;48.764;9.172;2022-12-01T12:00:10;7.00;54.50
431;DHT22;202;48.764;9.172;2022-12-01T12:02:54;7.00;55.10
431;DHT22;202;48.764;9.172;2022-12-01T12:05:45;7.00;54.90
431;DHT22;202;48.764;9.172;2022-12-01T12:08:33;7.10;55.10
431;DHT22;202;48.764;9.172;2022-12-01T12:11:08;7.20;54.20
431;DHT22;202;48.764;9.172;2022-12-01T12:16:20;7.10;53.80
431;DHT22;202;48.764;9.172;2022-12-01T12:19:08;7.00;54.30
431;DHT22;202;48.764;9.172;2022-12-01T12:21:45;7.10;54.20
431;DHT22;202;48.764;9.172;2022-12-01T12:24:29;7.10;54.50
431;DHT22;202;48.764;9.172;2022-12-01T12:27:07;7.00;54.40
431;DHT22;202;48.764;9.172;2022-12-01T12:29:47;7.10;54.80
431;DHT22;202;48.764;9.172;2022-12-01T12:32:33;7.20;54.50
431;DHT22;202;48.764;9.172;2022-12-01T12:35:14;7.20;53.70
431;DHT22;202;48.764;9.172;2022-12-01T12:37:48;7.10;54.00
431;DHT22;202;48.764;9.172;2022-12-01T12:40:31;7.10;54.40
431;DHT22;202;48.764;9.172;2022-12-01T12:43:19;7.10;54.00
431;DHT22;202;48.764;9.172;2022-12-01T12:45:56;7.20;53.70
431;DHT22;202;48.764;9.172;2022-12-01T12:48:41;7.30;53.90
431;DHT22;202;48.764;9.172;2022-12-01T12:51:18;7.30;53.70
431;DHT22;202;48.764;9.172;2022-12-01T12:53:50;7.30;53.60
431;DHT22;202;48.764;9.172;2022-12-01T12:56:21;7.40;54.00
431;DHT22;202;48.764;9.172;2022-12-01T12:58:55;7.40;53.40
431;DHT22;202;48.764;9.172;2022-12-01T13:01:25;7.40;52.90
431;DHT22;202;48.764;9.172;2022-12-01T13:03:59;7.40;52.80
431;DHT22;202;48.764;9.172;2022-12-01T13:06:33;7.40;53.00
431;DHT22;202;48.764;9.172;2022-12-01T13:09:08;7.40;52.30
431;DHT22;202;48.764;9.172;2022-12-01T13:11:43;7.40;53.10
431;DHT22;202;48.764;9.172;2022-12-01T13:14:23;7.20;52.60
431;DHT22;202;48.764;9.172;2022-12-01T13:17:11;7.20;53.50
431;DHT22;202;48.764;9.172;2022-12-01T13:19:43;7.20;53.70
431;DHT22;202;48.764;9.172;2022-12-01T13:22:12;7.30;53.60
431;DHT22;202;48.764;9.172;2022-12-01T13:24:40;7.30;53.70
431;DHT22;202;48.764;9.172;2022-12-01T13:27:13;7.20;53.50
431;DHT22;202;48.764;9.172;2022-12-01T13:29:45;7.30;53.30
431;DHT22;202;48.764;9.172;2022-12-01T13:32:30;7.30;53.90
431;DHT22;202;48.764;9.172;2022-12-01T13:35:01;7.10;54.10
431;DHT22;202;48.764;9.172;2022-12-01T13:37:32;7.20;54.30
431;DHT22;202;48.764;9.172;2022-12-01T13:40:08;7.30;54.10
431;DHT22;202;48.764;9.172;2022-12-01T13:42:36;7.30;53.60
431;DHT22;202;48.764;9.172;2022-12-01T13:45:10;7.30;54.00
431;DHT22;202;48.764;9.172;2022-12-01T13:47:49;7.40;54.40
431;DHT22;202;48.764;9.172;2022-12-01T13:50:48;7.40;53.60
431;DHT22;202;48.764;9.172;2022-12-01T13:53:28;7.40;52.90
431;DHT22;202;48.764;9.172;2022-12-01T13:55:58;7.40;53.60
431;DHT22;202;48.764;9.172;2022-12-01T13:58:42;7.40;54.20
431;DHT22;202;48.764;9.172;2022-12-01T14:01:41;7.40;53.80
431;DHT22;202;48.764;9.172;2022-12-01T14:04:30;7.40;53.70
431;DHT22;202;48.764;9.172;2022-12-01T14:10:26;7.40;53.60
431;DHT22;202;48.764;9.172;2022-12-01T14:12:58;7.40;53.50
431;DHT22;202;48.764;9.172;2022-12-01T14:15:32;7.40;53.70
431;DHT22;202;48.764;9.172;2022-12-01T14:18:06;7.40;53.90
431;DHT22;202;48.764;9.172;2022-12-01T14:20:46;7.40;54.10
431;DHT22;202;48.764;9.172;2022-12-01T14:23:23;7.40;54.00
431;DHT22;202;48.764;9.172;2022-12-01T14:26:14;7.40;53.90
431;DHT22;202;48.764;9.172;2022-12-01T14:29:08;7.30;53.70
431;DHT22;202;48.764;9.172;2022-12-01T14:34:52;7.30;54.30
431;DHT22;202;48.764;9.172;2022-12-01T14:37:22;7.40;54.50
431;DHT22;202;48.764;9.172;2022-12-01T14:40:04;7.40;54.30
431;DHT22;202;48.764;9.172;2022-12-01T14:42:36;7.40;54.50
431;DHT22;202;48.764;9.172;2022-12-01T14:45:24;7.30;54.50
431;DHT22;202;48.764;9.172;2022-12-01T14:47:58;7.20;54.80
431;DHT22;202;48.764;9.172;2022-12-01T14:50:45;7.20;54.40
431;DHT22;202;48.764;9.172;2022-12-01T14:53:36;7.30;55.20
431;DHT22;202;48.764;9.172;2022-12-01T14:56:09;7.30;55.10
431;DHT22;202;48.764;9.172;2022-12-01T14:58:38;7.30;56.30
431;DHT22;202;48.764;9.172;2022-12-01T15:01:16;7.30;55.50
431;DHT22;202;48.764;9.172;2022-12-01T15:03:47;7.30;55.40
431;DHT22;202;48.764;9.172;2022-12-01T15:06:16;7.30;55.60
431;DHT22;202;48.764;9.172;2022-12-01T15:08:44;7.30;55.70
431;DHT22;202;48.764;9.172;2022-12-01T15:11:19;7.30;55.70
431;DHT22;202;48.764;9.172;2022-12-01T15:13:52;7.30;55.70
431;DHT22;202;48.764;9.172;2022-12-01T15:16:21;7.40;55.60
431;DHT22;202;48.764;9.172;2022-12-01T15:18:49;7.30;55.70
431;DHT22;202;48.764;9.172;2022-12-01T15:21:18;7.30;55.90
431;DHT22;202;48.764;9.172;2022-12-01T15:23:57;7.30;55.40
431;DHT22;202;48.764;9.172;2022-12-01T15:26:28;7.20;56.60
431;DHT22;202;48.764;9.172;2022-12-01T15:29:22;7.30;56.30
431;DHT22;202;48.764;9.172;2022-12-01T15:31:51;7.30;56.10
431;DHT22;202;48.764;9.172;2022-12-01T15:34:20;7.30;56.20
431;DHT22;202;48.764;9.172;2022-12-01T15:36:49;7.40;55.90
431;DHT22;202;48.764;9.172;2022-12-01T15:39:19;7.30;56.10
431;DHT22;202;48.764;9.172;2022-12-01T15:41:47;7.30;56.00
431;DHT22;202;48.764;9.172;2022-12-01T15:44:20;7.20;56.20
431;DHT22;202;48.764;9.172;2022-12-01T15:46:48;7.30;56.70
431;DHT22;202;48.764;9.172;2022-12-01T15:49:17;7.20;56.60
431;DHT22;202;48.764;9.172;2022-12-01T15:51:45;7.30;56.70
431;DHT22;202;48.764;9.172;2022-12-01T15:54:19;7.30;56.70
431;DHT22;202;48.764;9.172;2022-12-01T15:56:52;7.30;56.70
431;DHT22;202;48.764;9.172;2022-12-01T15:59:30;7.30;56.70
431;DHT22;202;48.764;9.172;2022-12-01T16:02:19;7.20;56.60
431;DHT22;202;48.764;9.172;2022-12-01T16:04:56;7.30;56.70
431;DHT22;202;48.764;9.172;2022-12-01T16:07:30;7.20;57.70
431;DHT22;202;48.764;9.172;2022-12-01T16:09:59;7.30;56.70
431;DHT22;202;48.764;9.172;2022-12-01T16:12:27;7.30;56.70
431;DHT22;202;48.764;9.172;2022-12-01T16:15:01;7.30;56.90
431;DHT22;202;48.764;9.172;2022-12-01T16:17:41;7.30;56.80
431;DHT22;202;48.764;9.172;2022-12-01T16:20:21;7.30;56.70
431;DHT22;202;48.764;9.172;2022-12-01T16:22:51;7.30;56.70
431;DHT22;202;48.764;9.172;2022-12-01T16:25:27;7.20;57.90
431;DHT22;202;48.764;9.172;2022-12-01T16:27:56;7.30;58.90
431;DHT22;202;48.764;9.172;2022-12-01T16:30:25;7.20;59.50
431;DHT22;202;48.764;9.172;2022-12-01T16:33:14;7.20;60.40
431;DHT22;202;48.764;9.172;2022-12-01T16:35:41;7.20;60.60
431;DHT22;202;48.764;9.172;2022-12-01T16:38:12;7.20;61.30
431;DHT22;202;48.764;9.172;2022-12-01T16:40:41;7.20;61.30
431;DHT22;202;48.764;9.172;2022-12-01T16:43:13;7.20;62.40
431;DHT22;202;48.764;9.172;2022-12-01T16:45:43;7.30;61.90
431;DHT22;202;48.764;9.172;2022-12-01T16:48:11;7.30;61.50
431;DHT22;202;48.764;9.172;2022-12-01T16:50:39;7.20;62.20
431;DHT22;202;48.764;9.172;2022-12-01T16:53:07;7.30;62.70
431;DHT22;202;48.764;9.172;2022-12-01T16:55:37;7.20;61.40
431;DHT22;202;48.764;9.172;2022-12-01T16:58:06;7.20;61.70
431;DHT22;202;48.764;9.172;2022-12-01T17:00:34;7.20;62.70
431;DHT22;202;48.764;9.172;2022-12-01T17:03:01;7.30;63.10
431;DHT22;202;48.764;9.172;2022-12-01T17:05:30;7.20;62.00
431;DHT22;202;48.764;9.172;2022-12-01T17:07:58;7.30;61.50
431;DHT22;202;48.764;9.172;2022-12-01T17:10:26;7.30;61.40
431;DHT22;202;48.764;9.172;2022-12-01T17:12:53;7.30;61.40
431;DHT22;202;48.764;9.172;2022-12-01T17:15:20;7.20;61.00
431;DHT22;202;48.764;9.172;2022-12-01T17:17:47;7.20;60.60
431;DHT22;202;48.764;9.172;2022-12-01T17:20:16;7.20;61.50
431;DHT22;202;48.764;9.172;2022-12-01T17:22:43;7.20;62.00
431;DHT22;202;48.764;9.172;2022-12-01T17:25:14;7.20;62.10
431;DHT22;202;48.764;9.172;2022-12-01T17:27:41;7.10;61.80
431;DHT22;202;48.764;9.172;2022-12-01T17:30:09;7.20;61.30
431;DHT22;202;48.764;9.172;2022-12-01T17:32:37;7.20;61.30
431;DHT22;202;48.764;9.172;2022-12-01T17:35:05;7.10;61.20
431;DHT22;202;48.764;9.172;2022-12-01T17:37:32;7.20;61.30
431;DHT22;202;48.764;9.172;2022-12-01T17:40:02;7.00;61.10
431;DHT22;202;48.764;9.172;2022-12-01T17:42:36;7.00;61.80
431;DHT22;202;48.764;9.172;2022-12-01T17:45:06;7.00;61.90
431;DHT22;202;48.764;9.172;2022-12-01T17:47:36;7.10;62.20
431;DHT22;202;48.764;9.172;2022-12-01T17:50:04;7.10;61.90
431;DHT22;202;48.764;9.172;2022-12-01T17:52:32;7.10;62.20
431;DHT22;202;48.764;9.172;2022-12-01T17:54:59;7.00;62.80
431;DHT22;202;48.764;9.172;2022-12-01T17:57:27;6.90;62.60
431;DHT22;202;48.764;9.172;2022-12-01T17:59:55;7.00;62.60
431;DHT22;202;48.764;9.172;2022-12-01T18:02:22;7.00;62.10
431;DHT22;202;48.764;9.172;2022-12-01T18:04:49;7.10;62.70
431;DHT22;202;48.764;9.172;2022-12-01T18:07:20;7.00;61.10